sensor_id;sensor_type;location;lat;lon;timestamp;pressure;altitude;pressure_sealevel;temperature;humidity
68193;BME280;55012;47.562;18.414;2022-11-25T00:01:28;99775.41;;;3.10;100.00
68193;BME280;55012;47.562;18.414;2022-11-25T00:03:55;99781.84;;;3.09;100.00
68193;BME280;55012;47.562;18.414;2022-11-25T00:06:26;99779.69;;;3.06;100.00
68193;BME280;55012;47.562;18.414;2022-11-25T00:11:25;99774.41;;;3.01;100.00
68193;BME280;55012;47.562;18.414;2022-11-25T00:13:52;99773.66;;;2.95;100.00
68193;BME280;55012;47.562;18.414;2022-11-25T00:16:19;99778.28;;;2.90;100.00
68193;BME280;55012;47.562;18.414;2022-11-25T00:18:50;99780.97;;;2.85;100.00
68193;BME280;55012;47.562;18.414;2022-11-25T00:21:18;99775.63;;;2.85;100.00
68193;BME280;55012;47.562;18.414;2022-11-25T00:23:52;99781.47;;;2.87;100.00
68193;BME280;55012;47.562;18.414;2022-11-25T00:26:19;99777.72;;;2.88;100.00
68193;BME280;55012;47.562;18.414;2022-11-25T00:28:46;99785.72;;;2.93;100.00
68193;BME280;55012;47.562;18.414;2022-11-25T00:33:37;99788.91;;;2.95;100.00
68193;BME280;55012;47.562;18.414;2022-11-25T00:36:04;99791.56;;;2.95;100.00
68193;BME280;55012;47.562;18.414;2022-11-25T00:38:30;99792.63;;;2.99;100.00
68193;BME280;55012;47.562;18.414;2022-11-25T00:40:55;99789.94;;;2.99;100.00
68193;BME280;55012;47.562;18.414;2022-11-25T00:43:40;99798.75;;;2.99;100.00
68193;BME280;55012;47.562;18.414;2022-11-25T00:46:24;99793.63;;;3.03;100.00
68193;BME280;55012;47.562;18.414;2022-11-25T00:48:49;99802.16;;;3.05;100.00
68193;BME280;55012;47.562;18.414;2022-11-25T00:51:15;99800.03;;;3.07;100.00
68193;BME280;55012;47.562;18.414;2022-11-25T00:53:40;99805.38;;;3.07;100.00
68193;BME280;55012;47.562;18.414;2022-11-25T00:56:06;99806.19;;;3.07;100.00
68193;BME280;55012;47.562;18.414;2022-11-25T00:58:37;99814.44;;;3.06;100.00
68193;BME280;55012;47.562;18.414;2022-11-25T01:01:03;99810.97;;;3.05;100.00
68193;BME280;55012;47.562;18.414;2022-11-25T01:03:29;99820.94;;;3.00;100.00
68193;BME280;55012;47.562;18.414;2022-11-25T01:05:54;99815.88;;;2.98;100.00
68193;BME280;55012;47.562;18.414;2022-11-25T01:08:20;99828.69;;;2.96;100.00
68193;BME280;55012;47.562;18.414;2022-11-25T01:10:45;99826.03;;;2.96;100.00
68193;BME280;55012;47.562;18.414;2022-11-25T01:13:10;99824.16;;;2.97;100.00
68193;BME280;55012;47.562;18.414;2022-11-25T01:15:36;99818.28;;;2.95;100.00
68193;BME280;55012;47.562;18.414;2022-11-25T01:18:01;99819.38;;;2.94;100.00
68193;BME280;55012;47.562;18.414;2022-11-25T01:20:27;99816.94;;;2.97;100.00
68193;BME280;55012;47.562;18.414;2022-11-25T01:22:52;99820.69;;;2.96;100.00
68193;BME280;55012;47.562;18.414;2022-11-25T01:25:18;99819.59;;;2.97;100.00
68193;BME280;55012;47.562;18.414;2022-11-25T01:27:43;99820.69;;;2.96;100.00
68193;BME280;55012;47.562;18.414;2022-11-25T01:30:09;99825.00;;;2.92;100.00
68193;BME280;55012;47.562;18.414;2022-11-25T01:32:35;99816.19;;;2.92;100.00
68193;BME280;55012;47.562;18.414;2022-11-25T01:35:00;99814.03;;;2.94;100.00
68193;BME280;55012;47.562;18.414;2022-11-25T01:37:26;99816.69;;;2.94;100.00
68193;BME280;55012;47.562;18.414;2022-11-25T01:39:51;99813.53;;;2.92;100.00
68193;BME280;55012;47.562;18.414;2022-11-25T01:42:18;99817.81;;;2.88;100.00
68193;BME280;55012;47.562;18.414;2022-11-25T01:47:53;99816.22;;;2.87;100.00
68193;BME280;55012;47.562;18.414;2022-11-25T01:50:21;99814.94;;;2.79;100.00
68193;BME280;55012;47.562;18.414;2022-11-25T01:52:51;99809.13;;;2.72;100.00
68193;BME280;55012;47.562;18.414;2022-11-25T01:55:21;99816.91;;;2.68;100.00
68193;BME280;55012;47.562;18.414;2022-11-25T01:57:56;99809.72;;;2.64;100.00
68193;BME280;55012;47.562;18.414;2022-11-25T02:00:23;99818.50;;;2.69;100.00
68193;BME280;55012;47.562;18.414;2022-11-25T02:02:51;99813.13;;;2.74;100.00
68193;BME280;55012;47.562;18.414;2022-11-25T02:05:20;99820.88;;;2.71;100.00
68193;BME280;55012;47.562;18.414;2022-11-25T02:07:48;99816.88;;;2.73;100.00
68193;BME280;55012;47.562;18.414;2022-11-25T02:10:18;99821.84;;;2.85;100.00
68193;BME280;55012;47.562;18.414;2022-11-25T02:12:45;99816.13;;;2.97;100.00
68193;BME280;55012;47.562;18.414;2022-11-25T02:15:12;99814.44;;;3.06;100.00
68193;BME280;55012;47.562;18.414;2022-11-25T02:17:40;99819.44;;;3.18;100.00
68193;BME280;55012;47.562;18.414;2022-11-25T02:25:24;99830.47;;;3.40;100.00
68193;BME280;55012;47.562;18.414;2022-11-25T02:27:54;99828.47;;;3.51;100.00
68193;BME280;55012;47.562;18.414;2022-11-25T02:30:21;99823.09;;;3.56;100.00
68193;BME280;55012;47.562;18.414;2022-11-25T02:32:47;99821.38;;;3.65;100.00
68193;BME280;55012;47.562;18.414;2022-11-25T02:37:49;99817.56;;;3.71;100.00
68193;BME280;55012;47.562;18.414;2022-11-25T02:40:15;99818.41;;;3.66;100.00
68193;BME280;55012;47.562;18.414;2022-11-25T02:42:42;99821.88;;;3.67;100.00
68193;BME280;55012;47.562;18.414;2022-11-25T02:45:10;99829.34;;;3.70;100.00
68193;BME280;55012;47.562;18.414;2022-11-25T02:47:37;99822.91;;;3.71;100.00
68193;BME280;55012;47.562;18.414;2022-11-25T02:50:03;99825.34;;;3.67;100.00
68193;BME280;55012;47.562;18.414;2022-11-25T02:52:29;99828.88;;;3.63;100.00
68193;BME280;55012;47.562;18.414;2022-11-25T02:54:54;99824.09;;;3.60;100.00
68193;BME280;55012;47.562;18.414;2022-11-25T02:57:19;99829.50;;;3.55;100.00
68193;BME280;55012;47.562;18.414;2022-11-25T02:59:45;99834.16;;;3.44;100.00
68193;BME280;55012;47.562;18.414;2022-11-25T03:02:10;99836.66;;;3.35;100.00
68193;BME280;55012;47.562;18.414;2022-11-25T03:04:36;99839.38;;;3.30;100.00
68193;BME280;55012;47.562;18.414;2022-11-25T03:07:01;99840.50;;;3.24;100.00
68193;BME280;55012;47.562;18.414;2022-11-25T03:09:27;99838.63;;;3.25;100.00
68193;BME280;55012;47.562;18.414;2022-11-25T03:11:53;99851.94;;;3.30;100.00
68193;BME280;55012;47.562;18.414;2022-11-25T03:14:36;99846.06;;;3.28;100.00
68193;BME280;55012;47.562;18.414;2022-11-25T03:17:02;99855.97;;;3.27;100.00
68193;BME280;55012;47.562;18.414;2022-11-25T03:19:27;99847.72;;;3.24;100.00
68193;BME280;55012;47.562;18.414;2022-11-25T03:21:53;99846.16;;;3.23;100.00
68193;BME280;55012;47.562;18.414;2022-11-25T03:24:18;99855.22;;;3.22;100.00
68193;BME280;55012;47.562;18.414;2022-11-25T03:26:43;99849.13;;;3.16;100.00
68193;BME280;55012;47.562;18.414;2022-11-25T03:29:09;99847.56;;;3.10;100.00
68193;BME280;55012;47.562;18.414;2022-11-25T03:31:34;99862.06;;;3.04;100.00
68193;BME280;55012;47.562;18.414;2022-11-25T03:34:00;99850.38;;;2.95;100.00
68193;BME280;55012;47.562;18.414;2022-11-25T03:36:25;99858.16;;;2.91;100.00
68193;BME280;55012;47.562;18.414;2022-11-25T03:38:51;99851.72;;;2.92;100.00
68193;BME280;55012;47.562;18.414;2022-11-25T03:41:16;99855.75;;;2.90;100.00
68193;BME280;55012;47.562;18.414;2022-11-25T03:43:41;99852.91;;;2.76;100.00
68193;BME280;55012;47.562;18.414;2022-11-25T03:46:07;99853.81;;;2.61;100.00
68193;BME280;55012;47.562;18.414;2022-11-25T03:48:32;99860.81;;;2.52;100.00
68193;BME280;55012;47.562;18.414;2022-11-25T03:50:58;99857.66;;;2.40;100.00
68193;BME280;55012;47.562;18.414;2022-11-25T03:53:23;99859.88;;;2.28;100.00
68193;BME280;55012;47.562;18.414;2022-11-25T03:55:49;99861.78;;;2.17;100.00
68193;BME280;55012;47.562;18.414;2022-11-25T03:58:14;99857.78;;;2.14;100.00
68193;BME280;55012;47.562;18.414;2022-11-25T04:00:40;99870.06;;;2.15;100.00
68193;BME280;55012;47.562;18.414;2022-11-25T04:03:05;99865.00;;;2.14;100.00
68193;BME280;55012;47.562;18.414;2022-11-25T04:05:31;99869.81;;;2.17;100.00
68193;BME280;55012;47.562;18.414;2022-11-25T04:07:56;99866.59;;;2.15;100.00
68193;BME280;55012;47.562;18.414;2022-11-25T04:10:21;99872.72;;;2.20;100.00
68193;BME280;55012;47.562;18.414;2022-11-25T04:12:47;99870.56;;;2.22;100.00
68193;BME280;55012;47.562;18.414;2022-11-25T04:15:17;99873.50;;;2.26;100.00
68193;BME280;55012;47.562;18.414;2022-11-25T04:17:43;99875.88;;;2.28;100.00
68193;BME280;55012;47.562;18.414;2022-11-25T04:20:09;99878.56;;;2.28;100.00
68193;BME280;55012;47.562;18.414;2022-11-25T04:22:35;99871.34;;;2.28;100.00
68193;BME280;55012;47.562;18.414;2022-11-25T04:25:00;99878.53;;;2.33;100.00
68193;BME280;55012;47.562;18.414;2022-11-25T04:27:26;99880.38;;;2.37;100.00
68193;BME280;55012;47.562;18.414;2022-11-25T04:29:51;99881.69;;;2.40;100.00
68193;BME280;55012;47.562;18.414;2022-11-25T04:32:17;99885.41;;;2.44;100.00
68193;BME280;55012;47.562;18.414;2022-11-25T04:34:42;99892.28;;;2.55;100.00
68193;BME280;55012;47.562;18.414;2022-11-25T04:37:08;99891.47;;;2.60;100.00
68193;BME280;55012;47.562;18.414;2022-11-25T04:39:33;99907.22;;;2.61;100.00
68193;BME280;55012;47.562;18.414;2022-11-25T04:41:59;99904.56;;;2.61;100.00
68193;BME280;55012;47.562;18.414;2022-11-25T04:44:43;99905.13;;;2.58;100.00
68193;BME280;55012;47.562;18.414;2022-11-25T04:47:08;99907.00;;;2.58;100.00
68193;BME280;55012;47.562;18.414;2022-11-25T04:49:34;99911.53;;;2.57;100.00
68193;BME280;55012;47.562;18.414;2022-11-25T04:51:59;99909.66;;;2.58;100.00
68193;BME280;55012;47.562;18.414;2022-11-25T04:54:25;99912.06;;;2.59;100.00
68193;BME280;55012;47.562;18.414;2022-11-25T04:56:50;99911.25;;;2.59;100.00
68193;BME280;55012;47.562;18.414;2022-11-25T04:59:16;99911.00;;;2.55;100.00
68193;BME280;55012;47.562;18.414;2022-11-25T05:01:59;99916.88;;;2.57;100.00
68193;BME280;55012;47.562;18.414;2022-11-25T05:04:25;99930.75;;;2.59;100.00
68193;BME280;55012;47.562;18.414;2022-11-25T05:06:50;99926.16;;;2.65;100.00
68193;BME280;55012;47.562;18.414;2022-11-25T05:09:16;99926.66;;;2.72;100.00
68193;BME280;55012;47.562;18.414;2022-11-25T05:11:42;99929.31;;;2.77;100.00
68193;BME280;55012;47.562;18.414;2022-11-25T05:14:07;99937.31;;;2.82;100.00
68193;BME280;55012;47.562;18.414;2022-11-25T05:16:33;99937.25;;;2.87;100.00
68193;BME280;55012;47.562;18.414;2022-11-25T05:18:58;99945.25;;;2.92;100.00
68193;BME280;55012;47.562;18.414;2022-11-25T05:21:24;99939.91;;;2.92;100.00
68193;BME280;55012;47.562;18.414;2022-11-25T05:23:49;99941.50;;;2.93;100.00
68193;BME280;55012;47.562;18.414;2022-11-25T05:26:15;99947.09;;;2.97;100.00
68193;BME280;55012;47.562;18.414;2022-11-25T05:28:40;99948.44;;;2.94;100.00
68193;BME280;55012;47.562;18.414;2022-11-25T05:31:06;99945.50;;;2.96;100.00
68193;BME280;55012;47.562;18.414;2022-11-25T05:33:31;99951.41;;;2.93;100.00
68193;BME280;55012;47.562;18.414;2022-11-25T05:35:59;99959.16;;;2.89;100.00
68193;BME280;55012;47.562;18.414;2022-11-25T05:38:25;99957.31;;;2.85;100.00
68193;BME280;55012;47.562;18.414;2022-11-25T05:40:50;99957.06;;;2.81;100.00
68193;BME280;55012;47.562;18.414;2022-11-25T05:43:16;99956.25;;;2.80;100.00
68193;BME280;55012;47.562;18.414;2022-11-25T05:45:42;99957.31;;;2.85;100.00
68193;BME280;55012;47.562;18.414;2022-11-25T05:48:07;99961.59;;;2.86;100.00
68193;BME280;55012;47.562;18.414;2022-11-25T05:50:33;99959.72;;;2.86;100.00
68193;BME280;55012;47.562;18.414;2022-11-25T05:52:59;99967.44;;;2.88;100.00
68193;BME280;55012;47.562;18.414;2022-11-25T05:55:24;99960.22;;;2.93;100.00
68193;BME280;55012;47.562;18.414;2022-11-25T05:57:49;99965.25;;;3.00;100.00
68193;BME280;55012;47.562;18.414;2022-11-25T06:00:16;99963.63;;;3.04;100.00
68193;BME280;55012;47.562;18.414;2022-11-25T06:02:41;99961.22;;;3.07;100.00
68193;BME280;55012;47.562;18.414;2022-11-25T06:05:07;99975.59;;;3.12;100.00
68193;BME280;55012;47.562;18.414;2022-11-25T06:07:32;99979.88;;;3.13;100.00
68193;BME280;55012;47.562;18.414;2022-11-25T06:09:58;99973.50;;;3.08;100.00
68193;BME280;55012;47.562;18.414;2022-11-25T06:12:23;99976.97;;;3.04;100.00
68193;BME280;55012;47.562;18.414;2022-11-25T06:14:49;99982.09;;;3.00;100.00
68193;BME280;55012;47.562;18.414;2022-11-25T06:17:15;99975.16;;;2.99;100.00
68193;BME280;55012;47.562;18.414;2022-11-25T06:19:40;99983.41;;;3.03;100.00
68193;BME280;55012;47.562;18.414;2022-11-25T06:22:06;99981.25;;;3.05;100.00
68193;BME280;55012;47.562;18.414;2022-11-25T06:24:31;99989.81;;;3.07;100.00
68193;BME280;55012;47.562;18.414;2022-11-25T06:26:57;99989.53;;;3.08;100.00
68193;BME280;55012;47.562;18.414;2022-11-25T06:29:22;99998.59;;;3.13;100.00
68193;BME280;55012;47.562;18.414;2022-11-25T06:31:48;99998.84;;;3.16;100.00
68193;BME280;55012;47.562;18.414;2022-11-25T06:34:14;99999.34;;;3.18;100.00
68193;BME280;55012;47.562;18.414;2022-11-25T06:36:40;99993.50;;;3.16;100.00
68193;BME280;55012;47.562;18.414;2022-11-25T06:39:05;100000.72;;;3.16;100.00
68193;BME280;55012;47.562;18.414;2022-11-25T06:41:31;99992.41;;;3.17;100.00
68193;BME280;55012;47.562;18.414;2022-11-25T06:43:56;99991.25;;;3.28;100.00
68193;BME280;55012;47.562;18.414;2022-11-25T06:46:22;99988.28;;;3.35;100.00
68193;BME280;55012;47.562;18.414;2022-11-25T06:48:47;99999.47;;;3.42;100.00
68193;BME280;55012;47.562;18.414;2022-11-25T06:51:14;100000.75;;;3.50;100.00
68193;BME280;55012;47.562;18.414;2022-11-25T06:53:40;99999.09;;;3.59;100.00
68193;BME280;55012;47.562;18.414;2022-11-25T06:56:21;100000.06;;;3.68;100.00
68193;BME280;55012;47.562;18.414;2022-11-25T06:58:47;100004.59;;;3.73;100.00
68193;BME280;55012;47.562;18.414;2022-11-25T07:01:14;100015.00;;;3.74;100.00
68193;BME280;55012;47.562;18.414;2022-11-25T07:03:41;100009.59;;;3.79;100.00
68193;BME280;55012;47.562;18.414;2022-11-25T07:06:08;100004.97;;;3.90;100.00
68193;BME280;55012;47.562;18.414;2022-11-25T07:08:34;100013.72;;;4.01;100.00
68193;BME280;55012;47.562;18.414;2022-11-25T07:11:09;100011.44;;;4.13;100.00
68193;BME280;55012;47.562;18.414;2022-11-25T07:13:35;100008.41;;;4.25;100.00
68193;BME280;55012;47.562;18.414;2022-11-25T07:16:02;100009.06;;;4.35;100.00
68193;BME280;55012;47.562;18.414;2022-11-25T07:18:34;100010.28;;;4.48;100.00
68193;BME280;55012;47.562;18.414;2022-11-25T07:21:07;100022.78;;;4.58;100.00
68193;BME280;55012;47.562;18.414;2022-11-25T07:23:34;100019.22;;;4.62;100.00
68193;BME280;55012;47.562;18.414;2022-11-25T07:26:05;100016.69;;;4.71;100.00
68193;BME280;55012;47.562;18.414;2022-11-25T07:28:31;100009.66;;;4.80;100.00
68193;BME280;55012;47.562;18.414;2022-11-25T07:31:16;100004.66;;;4.92;100.00
68193;BME280;55012;47.562;18.414;2022-11-25T07:33:42;100001.03;;;5.02;100.00
68193;BME280;55012;47.562;18.414;2022-11-25T07:36:10;100005.44;;;5.12;100.00
68193;BME280;55012;47.562;18.414;2022-11-25T07:38:37;100007.22;;;5.21;100.00
68193;BME280;55012;47.562;18.414;2022-11-25T07:41:06;100009.22;;;5.29;100.00
68193;BME280;55012;47.562;18.414;2022-11-25T07:43:33;100006.28;;;5.31;100.00
68193;BME280;55012;47.562;18.414;2022-11-25T07:46:21;100011.84;;;5.34;100.00
68193;BME280;55012;47.562;18.414;2022-11-25T07:48:47;100019.81;;;5.40;100.00
68193;BME280;55012;47.562;18.414;2022-11-25T07:53:39;100031.00;;;5.47;100.00
68193;BME280;55012;47.562;18.414;2022-11-25T07:56:05;100030.75;;;5.43;100.00
68193;BME280;55012;47.562;18.414;2022-11-25T07:58:30;100038.97;;;5.33;100.00
68193;BME280;55012;47.562;18.414;2022-11-25T08:00:56;100039.56;;;5.30;100.00
68193;BME280;55012;47.562;18.414;2022-11-25T08:03:21;100038.06;;;5.38;100.00
68193;BME280;55012;47.562;18.414;2022-11-25T08:05:47;100054.84;;;5.48;100.00
68193;BME280;55012;47.562;18.414;2022-11-25T08:08:12;100053.66;;;5.54;100.00
68193;BME280;55012;47.562;18.414;2022-11-25T08:10:41;100057.97;;;5.55;100.00
68193;BME280;55012;47.562;18.414;2022-11-25T08:13:06;100068.63;;;5.60;100.00
68193;BME280;55012;47.562;18.414;2022-11-25T08:15:32;100069.53;;;5.70;100.00
68193;BME280;55012;47.562;18.414;2022-11-25T08:17:57;100069.13;;;5.81;100.00
68193;BME280;55012;47.562;18.414;2022-11-25T08:20:22;100069.53;;;5.88;100.00
68193;BME280;55012;47.562;18.414;2022-11-25T08:22:48;100079.97;;;5.90;100.00
68193;BME280;55012;47.562;18.414;2022-11-25T08:25:13;100089.66;;;5.91;100.00
68193;BME280;55012;47.562;18.414;2022-11-25T08:27:39;100085.88;;;5.92;100.00
68193;BME280;55012;47.562;18.414;2022-11-25T08:30:05;100096.63;;;5.92;100.00
68193;BME280;55012;47.562;18.414;2022-11-25T08:32:36;100100.91;;;5.93;100.00
68193;BME280;55012;47.562;18.414;2022-11-25T08:35:02;100106.56;;;5.91;100.00
68193;BME280;55012;47.562;18.414;2022-11-25T08:37:29;100113.84;;;5.91;100.00
68193;BME280;55012;47.562;18.414;2022-11-25T08:39:55;100107.66;;;5.90;100.00
68193;BME280;55012;47.562;18.414;2022-11-25T08:42:20;100114.56;;;5.97;100.00
68193;BME280;55012;47.562;18.414;2022-11-25T08:44:51;100114.97;;;6.04;100.00
68193;BME280;55012;47.562;18.414;2022-11-25T08:47:16;100121.84;;;6.10;100.00
68193;BME280;55012;47.562;18.414;2022-11-25T08:49:42;100129.91;;;6.10;100.00
68193;BME280;55012;47.562;18.414;2022-11-25T08:52:08;100127.88;;;6.02;100.00
68193;BME280;55012;47.562;18.414;2022-11-25T08:54:33;100134.78;;;5.89;100.00
68193;BME280;55012;47.562;18.414;2022-11-25T08:56:59;100139.72;;;5.82;100.00
68193;BME280;55012;47.562;18.414;2022-11-25T08:59:24;100138.41;;;5.79;100.00
68193;BME280;55012;47.562;18.414;2022-11-25T09:01:50;100150.53;;;5.77;100.00
68193;BME280;55012;47.562;18.414;2022-11-25T09:04:15;100149.44;;;5.78;100.00
68193;BME280;55012;47.562;18.414;2022-11-25T09:06:41;100157.22;;;5.79;100.00
68193;BME280;55012;47.562;18.414;2022-11-25T09:09:06;100154.25;;;5.81;100.00
68193;BME280;55012;47.562;18.414;2022-11-25T09:11:32;100155.03;;;5.81;100.00
68193;BME280;55012;47.562;18.414;2022-11-25T09:13:57;100152.66;;;5.80;100.00
68193;BME280;55012;47.562;18.414;2022-11-25T09:16:23;100162.72;;;5.88;100.00
68193;BME280;55012;47.562;18.414;2022-11-25T09:18:49;100168.34;;;5.91;100.00
68193;BME280;55012;47.562;18.414;2022-11-25T09:21:16;100173.91;;;5.95;100.00
68193;BME280;55012;47.562;18.414;2022-11-25T09:23:42;100183.28;;;5.98;100.00
68193;BME280;55012;47.562;18.414;2022-11-25T09:26:19;100175.75;;;6.00;100.00
68193;BME280;55012;47.562;18.414;2022-11-25T09:28:44;100171.91;;;6.06;100.00
68193;BME280;55012;47.562;18.414;2022-11-25T09:31:10;100176.09;;;6.12;100.00
68193;BME280;55012;47.562;18.414;2022-11-25T09:33:35;100171.53;;;6.12;100.00
68193;BME280;55012;47.562;18.414;2022-11-25T09:36:02;100168.31;;;6.10;100.00
68193;BME280;55012;47.562;18.414;2022-11-25T09:38:27;100158.75;;;6.04;100.00
68193;BME280;55012;47.562;18.414;2022-11-25T09:41:00;100164.50;;;5.98;100.00
68193;BME280;55012;47.562;18.414;2022-11-25T09:46:34;100169.13;;;5.92;100.00
68193;BME280;55012;47.562;18.414;2022-11-25T09:51:58;100170.66;;;5.98;100.00
68193;BME280;55012;47.562;18.414;2022-11-25T09:54:38;100168.41;;;6.05;100.00
68193;BME280;55012;47.562;18.414;2022-11-25T10:02:36;100167.22;;;6.11;100.00
68193;BME280;55012;47.562;18.414;2022-11-25T10:05:19;100163.75;;;6.11;100.00
68193;BME280;55012;47.562;18.414;2022-11-25T10:07:48;100168.84;;;6.12;100.00
68193;BME280;55012;47.562;18.414;2022-11-25T10:10:25;100166.22;;;6.07;100.00
68193;BME280;55012;47.562;18.414;2022-11-25T10:12:53;100166.56;;;6.19;100.00
68193;BME280;55012;47.562;18.414;2022-11-25T10:15:29;100168.34;;;6.43;100.00
68193;BME280;55012;47.562;18.414;2022-11-25T10:18:01;100170.34;;;6.51;100.00
68193;BME280;55012;47.562;18.414;2022-11-25T10:20:34;100180.13;;;6.47;100.00
68193;BME280;55012;47.562;18.414;2022-11-25T10:23:03;100174.81;;;6.42;100.00
68193;BME280;55012;47.562;18.414;2022-11-25T10:25:33;100174.88;;;6.56;100.00
68193;BME280;55012;47.562;18.414;2022-11-25T10:28:02;100171.91;;;6.85;100.00
68193;BME280;55012;47.562;18.414;2022-11-25T10:30:43;100178.22;;;7.08;100.00
68193;BME280;55012;47.562;18.414;2022-11-25T10:33:31;100181.09;;;7.11;100.00
68193;BME280;55012;47.562;18.414;2022-11-25T10:38:38;100200.72;;;6.84;100.00
68193;BME280;55012;47.562;18.414;2022-11-25T10:41:06;100185.38;;;6.52;100.00
68193;BME280;55012;47.562;18.414;2022-11-25T10:43:32;100189.94;;;6.38;100.00
68193;BME280;55012;47.562;18.414;2022-11-25T10:46:09;100197.56;;;6.31;100.00
68193;BME280;55012;47.562;18.414;2022-11-25T10:48:47;100202.94;;;6.31;100.00
68193;BME280;55012;47.562;18.414;2022-11-25T10:53:41;100204.72;;;6.22;100.00
68193;BME280;55012;47.562;18.414;2022-11-25T10:56:15;100200.41;;;6.20;100.00
68193;BME280;55012;47.562;18.414;2022-11-25T10:58:41;100192.44;;;6.15;100.00
68193;BME280;55012;47.562;18.414;2022-11-25T11:01:21;100191.34;;;6.16;100.00
68193;BME280;55012;47.562;18.414;2022-11-25T11:04:02;100188.84;;;6.20;100.00
68193;BME280;55012;47.562;18.414;2022-11-25T11:06:38;100188.28;;;6.23;100.00
68193;BME280;55012;47.562;18.414;2022-11-25T11:09:04;100173.97;;;6.28;100.00
68193;BME280;55012;47.562;18.414;2022-11-25T11:11:30;100173.22;;;6.41;100.00
68193;BME280;55012;47.562;18.414;2022-11-25T11:14:12;100176.94;;;6.59;100.00
68193;BME280;55012;47.562;18.414;2022-11-25T11:16:42;100177.88;;;6.68;100.00
68193;BME280;55012;47.562;18.414;2022-11-25T11:19:25;100170.22;;;6.75;100.00
68193;BME280;55012;47.562;18.414;2022-11-25T11:21:52;100178.69;;;6.82;100.00
68193;BME280;55012;47.562;18.414;2022-11-25T11:24:33;100176.72;;;6.88;100.00
68193;BME280;55012;47.562;18.414;2022-11-25T11:29:37;100172.13;;;7.02;100.00
68193;BME280;55012;47.562;18.414;2022-11-25T11:32:05;100168.56;;;7.07;100.00
68193;BME280;55012;47.562;18.414;2022-11-25T11:35:07;100175.94;;;7.15;100.00
68193;BME280;55012;47.562;18.414;2022-11-25T11:37:40;100174.44;;;7.22;100.00
68193;BME280;55012;47.562;18.414;2022-11-25T11:54:04;100185.31;;;7.45;100.00
68193;BME280;55012;47.562;18.414;2022-11-25T11:56:45;100197.69;;;7.46;100.00
68193;BME280;55012;47.562;18.414;2022-11-25T11:59:44;100192.78;;;7.48;100.00
68193;BME280;55012;47.562;18.414;2022-11-25T12:12:41;100180.59;;;7.64;100.00
68193;BME280;55012;47.562;18.414;2022-11-25T12:15:20;100176.00;;;7.65;100.00
68193;BME280;55012;47.562;18.414;2022-11-25T12:17:53;100172.22;;;7.66;100.00
68193;BME280;55012;47.562;18.414;2022-11-25T12:23:00;100174.59;;;7.67;100.00
68193;BME280;55012;47.562;18.414;2022-11-25T12:25:32;100169.09;;;7.72;100.00
68193;BME280;55012;47.562;18.414;2022-11-25T12:28:29;100170.69;;;7.73;100.00
68193;BME280;55012;47.562;18.414;2022-11-25T12:31:09;100172.78;;;7.76;100.00
68193;BME280;55012;47.562;18.414;2022-11-25T12:33:45;100169.81;;;7.78;100.00
68193;BME280;55012;47.562;18.414;2022-11-25T12:36:27;100160.63;;;7.79;100.00
68193;BME280;55012;47.562;18.414;2022-11-25T12:44:24;100154.31;;;7.83;100.00
68193;BME280;55012;47.562;18.414;2022-11-25T12:46:52;100151.81;;;7.87;100.00
68193;BME280;55012;47.562;18.414;2022-11-25T12:49:24;100149.91;;;7.87;100.00
68193;BME280;55012;47.562;18.414;2022-11-25T13:00:08;100152.69;;;7.96;100.00
68193;BME280;55012;47.562;18.414;2022-11-25T13:14:22;100163.78;;;8.17;100.00
68193;BME280;55012;47.562;18.414;2022-11-25T13:16:50;100163.47;;;8.18;100.00
68193;BME280;55012;47.562;18.414;2022-11-25T13:19:18;100171.84;;;8.17;100.00
68193;BME280;55012;47.562;18.414;2022-11-25T13:22:04;100169.97;;;8.17;100.00
68193;BME280;55012;47.562;18.414;2022-11-25T13:24:37;100169.16;;;8.17;100.00
68193;BME280;55012;47.562;18.414;2022-11-25T13:27:04;100177.25;;;8.17;100.00
68193;BME280;55012;47.562;18.414;2022-11-25T13:32:00;100172.97;;;8.16;100.00
68193;BME280;55012;47.562;18.414;2022-11-25T13:34:30;100169.16;;;8.17;100.00
68193;BME280;55012;47.562;18.414;2022-11-25T13:36:57;100176.44;;;8.16;100.00
68193;BME280;55012;47.562;18.414;2022-11-25T13:39:36;100173.44;;;8.18;100.00
68193;BME280;55012;47.562;18.414;2022-11-25T13:42:24;100171.59;;;8.27;100.00
68193;BME280;55012;47.562;18.414;2022-11-25T13:44:57;100170.09;;;8.35;100.00
68193;BME280;55012;47.562;18.414;2022-11-25T13:47:30;100168.72;;;8.37;100.00
68193;BME280;55012;47.562;18.414;2022-11-25T13:50:19;100170.09;;;8.35;100.00
68193;BME280;55012;47.562;18.414;2022-11-25T13:52:48;100173.41;;;8.32;100.00
68193;BME280;55012;47.562;18.414;2022-11-25T13:55:27;100174.03;;;8.29;100.00
68193;BME280;55012;47.562;18.414;2022-11-25T13:57:59;100185.91;;;8.28;100.00
68193;BME280;55012;47.562;18.414;2022-11-25T14:06:25;100180.44;;;8.19;100.00
68193;BME280;55012;47.562;18.414;2022-11-25T14:09:30;100190.72;;;8.17;100.00
68193;BME280;55012;47.562;18.414;2022-11-25T14:14:44;100201.13;;;8.10;100.00
68193;BME280;55012;47.562;18.414;2022-11-25T14:20:33;100200.88;;;7.98;100.00
68193;BME280;55012;47.562;18.414;2022-11-25T14:25:49;100202.63;;;7.80;100.00
68193;BME280;55012;47.562;18.414;2022-11-25T14:30:54;100212.59;;;7.66;100.00
68193;BME280;55012;47.562;18.414;2022-11-25T14:33:30;100206.34;;;7.56;100.00
68193;BME280;55012;47.562;18.414;2022-11-25T14:36:24;100213.22;;;7.49;100.00
68193;BME280;55012;47.562;18.414;2022-11-25T14:39:15;100219.78;;;7.43;100.00
68193;BME280;55012;47.562;18.414;2022-11-25T14:42:08;100216.69;;;7.36;100.00
68193;BME280;55012;47.562;18.414;2022-11-25T14:45:01;100213.63;;;7.28;100.00